SBPK/PET METAR and TAF weather

Enter ICAO airport designator
Station Type Date Time Source
SBPK METAR 2021/07/29 21:00 UTC NOAA

SBPK 292100Z 26006KT 9999 FEW040 09/01 Q1026


Station Type Date Time Source
SBPK Decoded METAR 2021/07/29 21:00 UTC NOAA

Pelotas, Brazil (SBPK) 31-52S 052-21W 13M
Jul 29, 2021 - 05:00 PM EDT / 2021.07.29 2100 UTC
Wind: from the W (260 degrees) at 7 MPH (6 KT):0
Visibility: greater than 7 mile(s):0
Sky conditions: mostly clear
Temperature: 48 F (9 C)
Dew Point: 33 F (1 C)
Relative Humidity: 57%
Pressure (altimeter): 30.30 in. Hg (1026 hPa)
ob: SBPK 292100Z 26006KT 9999 FEW040 09/01 Q1026
cycle: 21

Station Type Date Time Source
SBPK TAF 2021/07/30 06:27 UTC NOAA

TAF SBPK 300330Z 3006/3106 27006KT CAVOK TX13/3017Z TN03/3104Z
BECMG 3013/3015 09005KT 9999 SCT030
BECMG 3102/3104 02005KT CAVOK
RMK PEG

Example: see airport list